<?xml version="1.0" encoding="UTF-8" standalone="no" ?>
<gpx xmlns="http://www.topografix.com/GPX/1/1" xmlns:xsi="http://www.w3.org/2001/XMLSchema-instance" xsi:schemaLocation="http://www.topografix.com/GPX/1/1 http://www.topografix.com/GPX/1/1/gpx.xsd" version="1.1" creator="VisuGPX - https://www.visugpx.com">
  <metadata>
    <name>La Caussenarde 2016 - 49km - 13705 - UtagawaVTT.com</name>
    <desc><![CDATA[Raccourcie en enlevant la partie Millau A/R]]></desc>
  </metadata>
  <trk>
    <name><![CDATA[projet TOUR Larzac-9670672]]></name>
    <extensions>
      <line xmlns="http://www.topografix.com/GPX/gpx_style/0/2">
        <color>00FF00</color>
        <opacity>1</opacity>
        <width>4</width>
          <extensions>
            <sens>1</sens>
          </extensions>
      </line>
    </extensions>
    <trkseg>
      <trkpt lat="44.00905" lon="3.158">
        <ele>798</ele>
        <time>2024-07-01T15:47:03Z</time>
      </trkpt>
      <trkpt lat="44.00699" lon="3.1604">
        <ele>804</ele>
        <time>2024-07-01T15:48:06Z</time>
      </trkpt>
      <trkpt lat="44.00728" lon="3.16162">
        <ele>798</ele>
        <time>2024-07-01T15:48:27Z</time>
      </trkpt>
      <trkpt lat="44.00494" lon="3.16759">
        <ele>799</ele>
        <time>2024-07-01T15:50:22Z</time>
      </trkpt>
      <trkpt lat="44.00148" lon="3.16535">
        <ele>832</ele>
        <time>2024-07-01T15:51:51Z</time>
      </trkpt>
      <trkpt lat="44.00027" lon="3.16637">
        <ele>833</ele>
        <time>2024-07-01T15:52:24Z</time>
      </trkpt>
      <trkpt lat="43.99899" lon="3.16346">
        <ele>825</ele>
        <time>2024-07-01T15:53:21Z</time>
      </trkpt>
      <trkpt lat="43.99803" lon="3.163">
        <ele>816</ele>
        <time>2024-07-01T15:53:45Z</time>
      </trkpt>
      <trkpt lat="43.99748" lon="3.16203">
        <ele>810</ele>
        <time>2024-07-01T15:54:05Z</time>
      </trkpt>
      <trkpt lat="43.99649" lon="3.1631">
        <ele>818</ele>
        <time>2024-07-01T15:54:35Z</time>
      </trkpt>
      <trkpt lat="43.99388" lon="3.16091">
        <ele>801</ele>
        <time>2024-07-01T15:55:46Z</time>
      </trkpt>
      <trkpt lat="43.99187" lon="3.16101">
        <ele>807</ele>
        <time>2024-07-01T15:56:33Z</time>
      </trkpt>
      <trkpt lat="43.99337" lon="3.16499">
        <ele>799</ele>
        <time>2024-07-01T15:57:48Z</time>
      </trkpt>
      <trkpt lat="43.99363" lon="3.16729">
        <ele>801</ele>
        <time>2024-07-01T15:58:28Z</time>
      </trkpt>
      <trkpt lat="43.99087" lon="3.16703">
        <ele>802</ele>
        <time>2024-07-01T15:59:32Z</time>
      </trkpt>
      <trkpt lat="43.98941" lon="3.1678">
        <ele>801</ele>
        <time>2024-07-01T16:00:09Z</time>
      </trkpt>
      <trkpt lat="43.9879" lon="3.168">
        <ele>807</ele>
        <time>2024-07-01T16:00:44Z</time>
      </trkpt>
      <trkpt lat="43.98706" lon="3.16867">
        <ele>813</ele>
        <time>2024-07-01T16:01:07Z</time>
      </trkpt>
      <trkpt lat="43.98445" lon="3.16907">
        <ele>840</ele>
        <time>2024-07-01T16:02:08Z</time>
      </trkpt>
      <trkpt lat="43.98272" lon="3.17015">
        <ele>847</ele>
        <time>2024-07-01T16:02:52Z</time>
      </trkpt>
      <trkpt lat="43.98041" lon="3.17004">
        <ele>865</ele>
        <time>2024-07-01T16:03:46Z</time>
      </trkpt>
      <trkpt lat="43.97879" lon="3.17081">
        <ele>867</ele>
        <time>2024-07-01T16:04:26Z</time>
      </trkpt>
      <trkpt lat="43.97791" lon="3.17193">
        <ele>864</ele>
        <time>2024-07-01T16:04:54Z</time>
      </trkpt>
      <trkpt lat="43.97685" lon="3.17198">
        <ele>858</ele>
        <time>2024-07-01T16:05:19Z</time>
      </trkpt>
      <trkpt lat="43.97589" lon="3.17316">
        <ele>845</ele>
        <time>2024-07-01T16:05:49Z</time>
      </trkpt>
      <trkpt lat="43.97406" lon="3.17581">
        <ele>807</ele>
        <time>2024-07-01T16:06:51Z</time>
      </trkpt>
      <trkpt lat="43.97354" lon="3.17734">
        <ele>797</ele>
        <time>2024-07-01T16:07:19Z</time>
      </trkpt>
      <trkpt lat="43.97266" lon="3.1777">
        <ele>788</ele>
        <time>2024-07-01T16:07:40Z</time>
      </trkpt>
      <trkpt lat="43.97281" lon="3.18168">
        <ele>782</ele>
        <time>2024-07-01T16:08:47Z</time>
      </trkpt>
      <trkpt lat="43.97237" lon="3.18275">
        <ele>779</ele>
        <time>2024-07-01T16:09:08Z</time>
      </trkpt>
      <trkpt lat="43.97428" lon="3.18791">
        <ele>768</ele>
        <time>2024-07-01T16:10:46Z</time>
      </trkpt>
      <trkpt lat="43.97328" lon="3.19301">
        <ele>754</ele>
        <time>2024-07-01T16:12:14Z</time>
      </trkpt>
      <trkpt lat="43.97317" lon="3.19459">
        <ele>753</ele>
        <time>2024-07-01T16:12:41Z</time>
      </trkpt>
      <trkpt lat="43.9717" lon="3.19653">
        <ele>746</ele>
        <time>2024-07-01T16:13:28Z</time>
      </trkpt>
      <trkpt lat="43.97174" lon="3.19913">
        <ele>746</ele>
        <time>2024-07-01T16:14:12Z</time>
      </trkpt>
      <trkpt lat="43.97266" lon="3.20235">
        <ele>742</ele>
        <time>2024-07-01T16:15:10Z</time>
      </trkpt>
      <trkpt lat="43.97266" lon="3.20388">
        <ele>741</ele>
        <time>2024-07-01T16:15:36Z</time>
      </trkpt>
      <trkpt lat="43.97204" lon="3.20546">
        <ele>740</ele>
        <time>2024-07-01T16:16:06Z</time>
      </trkpt>
      <trkpt lat="43.97262" lon="3.20643">
        <ele>740</ele>
        <time>2024-07-01T16:16:28Z</time>
      </trkpt>
      <trkpt lat="43.97189" lon="3.20694">
        <ele>735</ele>
        <time>2024-07-01T16:16:47Z</time>
      </trkpt>
      <trkpt lat="43.97141" lon="3.21189">
        <ele>721</ele>
        <time>2024-07-01T16:18:11Z</time>
      </trkpt>
      <trkpt lat="43.96954" lon="3.21669">
        <ele>711</ele>
        <time>2024-07-01T16:19:42Z</time>
      </trkpt>
      <trkpt lat="43.97259" lon="3.2318">
        <ele>705</ele>
        <time>2024-07-01T16:24:06Z</time>
      </trkpt>
      <trkpt lat="43.9727" lon="3.2344">
        <ele>705</ele>
        <time>2024-07-01T16:24:50Z</time>
      </trkpt>
      <trkpt lat="43.97016" lon="3.24262">
        <ele>705</ele>
        <time>2024-07-01T16:27:20Z</time>
      </trkpt>
      <trkpt lat="43.96597" lon="3.24889">
        <ele>709</ele>
        <time>2024-07-01T16:29:44Z</time>
      </trkpt>
      <trkpt lat="43.96451" lon="3.25333">
        <ele>702</ele>
        <time>2024-07-01T16:31:06Z</time>
      </trkpt>
      <trkpt lat="43.96329" lon="3.25415">
        <ele>704</ele>
        <time>2024-07-01T16:31:38Z</time>
      </trkpt>
      <trkpt lat="43.96164" lon="3.25568">
        <ele>719</ele>
        <time>2024-07-01T16:32:24Z</time>
      </trkpt>
      <trkpt lat="43.9601" lon="3.25588">
        <ele>723</ele>
        <time>2024-07-01T16:33:00Z</time>
      </trkpt>
      <trkpt lat="43.95859" lon="3.2565">
        <ele>736</ele>
        <time>2024-07-01T16:33:37Z</time>
      </trkpt>
      <trkpt lat="43.95771" lon="3.25849">
        <ele>743</ele>
        <time>2024-07-01T16:34:16Z</time>
      </trkpt>
      <trkpt lat="43.95701" lon="3.25956">
        <ele>744</ele>
        <time>2024-07-01T16:34:40Z</time>
      </trkpt>
      <trkpt lat="43.95646" lon="3.26022">
        <ele>746</ele>
        <time>2024-07-01T16:34:57Z</time>
      </trkpt>
      <trkpt lat="43.9558" lon="3.26027">
        <ele>747</ele>
        <time>2024-07-01T16:35:13Z</time>
      </trkpt>
      <trkpt lat="43.95569" lon="3.26175">
        <ele>752</ele>
        <time>2024-07-01T16:35:38Z</time>
      </trkpt>
      <trkpt lat="43.95503" lon="3.26293">
        <ele>760</ele>
        <time>2024-07-01T16:36:03Z</time>
      </trkpt>
      <trkpt lat="43.95433" lon="3.26303">
        <ele>759</ele>
        <time>2024-07-01T16:36:19Z</time>
      </trkpt>
      <trkpt lat="43.95242" lon="3.26323">
        <ele>761</ele>
        <time>2024-07-01T16:37:04Z</time>
      </trkpt>
      <trkpt lat="43.95194" lon="3.26425">
        <ele>767</ele>
        <time>2024-07-01T16:37:25Z</time>
      </trkpt>
      <trkpt lat="43.95062" lon="3.26466">
        <ele>777</ele>
        <time>2024-07-01T16:37:56Z</time>
      </trkpt>
      <trkpt lat="43.94904" lon="3.26869">
        <ele>782</ele>
        <time>2024-07-01T16:39:13Z</time>
      </trkpt>
      <trkpt lat="43.94667" lon="3.26646">
        <ele>780</ele>
        <time>2024-07-01T16:40:20Z</time>
      </trkpt>
      <trkpt lat="43.94779" lon="3.26655">
        <ele>788</ele>
        <time>2024-07-01T16:40:46Z</time>
      </trkpt>
      <trkpt lat="43.94536" lon="3.26584">
        <ele>778</ele>
        <time>2024-07-01T16:41:44Z</time>
      </trkpt>
      <trkpt lat="43.94474" lon="3.26461">
        <ele>773</ele>
        <time>2024-07-01T16:42:10Z</time>
      </trkpt>
      <trkpt lat="43.94459" lon="3.26293">
        <ele>767</ele>
        <time>2024-07-01T16:42:38Z</time>
      </trkpt>
      <trkpt lat="43.94375" lon="3.26022">
        <ele>760</ele>
        <time>2024-07-01T16:43:28Z</time>
      </trkpt>
      <trkpt lat="43.94389" lon="3.25839">
        <ele>760</ele>
        <time>2024-07-01T16:43:59Z</time>
      </trkpt>
      <trkpt lat="43.94353" lon="3.2568">
        <ele>762</ele>
        <time>2024-07-01T16:44:27Z</time>
      </trkpt>
      <trkpt lat="43.94202" lon="3.25369">
        <ele>769</ele>
        <time>2024-07-01T16:45:30Z</time>
      </trkpt>
      <trkpt lat="43.94062" lon="3.25328">
        <ele>760</ele>
        <time>2024-07-01T16:46:03Z</time>
      </trkpt>
      <trkpt lat="43.93842" lon="3.25359">
        <ele>750</ele>
        <time>2024-07-01T16:46:55Z</time>
      </trkpt>
      <trkpt lat="43.93699" lon="3.25221">
        <ele>743</ele>
        <time>2024-07-01T16:47:36Z</time>
      </trkpt>
      <trkpt lat="43.93408" lon="3.24951">
        <ele>754</ele>
        <time>2024-07-01T16:48:57Z</time>
      </trkpt>
      <trkpt lat="43.93258" lon="3.2466">
        <ele>743</ele>
        <time>2024-07-01T16:49:57Z</time>
      </trkpt>
      <trkpt lat="43.93099" lon="3.24721">
        <ele>744</ele>
        <time>2024-07-01T16:50:36Z</time>
      </trkpt>
      <trkpt lat="43.92868" lon="3.24905">
        <ele>745</ele>
        <time>2024-07-01T16:51:38Z</time>
      </trkpt>
      <trkpt lat="43.92703" lon="3.25328">
        <ele>753</ele>
        <time>2024-07-01T16:52:59Z</time>
      </trkpt>
      <trkpt lat="43.92636" lon="3.25349">
        <ele>754</ele>
        <time>2024-07-01T16:53:15Z</time>
      </trkpt>
      <trkpt lat="43.92581" lon="3.25507">
        <ele>748</ele>
        <time>2024-07-01T16:53:45Z</time>
      </trkpt>
      <trkpt lat="43.92375" lon="3.25665">
        <ele>751</ele>
        <time>2024-07-01T16:54:40Z</time>
      </trkpt>
      <trkpt lat="43.92309" lon="3.25966">
        <ele>748</ele>
        <time>2024-07-01T16:55:33Z</time>
      </trkpt>
      <trkpt lat="43.92166" lon="3.26262">
        <ele>758</ele>
        <time>2024-07-01T16:56:32Z</time>
      </trkpt>
      <trkpt lat="43.92033" lon="3.26339">
        <ele>755</ele>
        <time>2024-07-01T16:57:06Z</time>
      </trkpt>
      <trkpt lat="43.91864" lon="3.26926">
        <ele>754</ele>
        <time>2024-07-01T16:58:52Z</time>
      </trkpt>
      <trkpt lat="43.9189" lon="3.27028">
        <ele>759</ele>
        <time>2024-07-01T16:59:11Z</time>
      </trkpt>
      <trkpt lat="43.91842" lon="3.27222">
        <ele>760</ele>
        <time>2024-07-01T16:59:45Z</time>
      </trkpt>
      <trkpt lat="43.91879" lon="3.27921">
        <ele>779</ele>
        <time>2024-07-01T17:01:43Z</time>
      </trkpt>
      <trkpt lat="43.91784" lon="3.28018">
        <ele>784</ele>
        <time>2024-07-01T17:02:11Z</time>
      </trkpt>
      <trkpt lat="43.91725" lon="3.28171">
        <ele>788</ele>
        <time>2024-07-01T17:02:40Z</time>
      </trkpt>
      <trkpt lat="43.91739" lon="3.28824">
        <ele>783</ele>
        <time>2024-07-01T17:04:30Z</time>
      </trkpt>
      <trkpt lat="43.9167" lon="3.28896">
        <ele>786</ele>
        <time>2024-07-01T17:04:50Z</time>
      </trkpt>
      <trkpt lat="43.91438" lon="3.29845">
        <ele>781</ele>
        <time>2024-07-01T17:07:38Z</time>
      </trkpt>
      <trkpt lat="43.91486" lon="3.30054">
        <ele>783</ele>
        <time>2024-07-01T17:08:15Z</time>
      </trkpt>
      <trkpt lat="43.91578" lon="3.30207">
        <ele>786</ele>
        <time>2024-07-01T17:08:49Z</time>
      </trkpt>
      <trkpt lat="43.91545" lon="3.30309">
        <ele>785</ele>
        <time>2024-07-01T17:09:08Z</time>
      </trkpt>
      <trkpt lat="43.9157" lon="3.30411">
        <ele>784</ele>
        <time>2024-07-01T17:09:26Z</time>
      </trkpt>
      <trkpt lat="43.91486" lon="3.3057">
        <ele>774</ele>
        <time>2024-07-01T17:09:59Z</time>
      </trkpt>
      <trkpt lat="43.91486" lon="3.30784">
        <ele>773</ele>
        <time>2024-07-01T17:10:35Z</time>
      </trkpt>
      <trkpt lat="43.91427" lon="3.30901">
        <ele>773</ele>
        <time>2024-07-01T17:10:59Z</time>
      </trkpt>
      <trkpt lat="43.91379" lon="3.31146">
        <ele>772</ele>
        <time>2024-07-01T17:11:42Z</time>
      </trkpt>
      <trkpt lat="43.91442" lon="3.31473">
        <ele>777</ele>
        <time>2024-07-01T17:12:39Z</time>
      </trkpt>
      <trkpt lat="43.91309" lon="3.31672">
        <ele>780</ele>
        <time>2024-07-01T17:13:24Z</time>
      </trkpt>
      <trkpt lat="43.91442" lon="3.31544">
        <ele>778</ele>
        <time>2024-07-01T17:14:02Z</time>
      </trkpt>
      <trkpt lat="43.91511" lon="3.31733">
        <ele>792</ele>
        <time>2024-07-01T17:14:38Z</time>
      </trkpt>
      <trkpt lat="43.91802" lon="3.31754">
        <ele>801</ele>
        <time>2024-07-01T17:15:46Z</time>
      </trkpt>
      <trkpt lat="43.9185" lon="3.31871">
        <ele>806</ele>
        <time>2024-07-01T17:16:08Z</time>
      </trkpt>
      <trkpt lat="43.92085" lon="3.3184">
        <ele>810</ele>
        <time>2024-07-01T17:17:04Z</time>
      </trkpt>
      <trkpt lat="43.92394" lon="3.31983">
        <ele>795</ele>
        <time>2024-07-01T17:18:20Z</time>
      </trkpt>
      <trkpt lat="43.9243" lon="3.32172">
        <ele>797</ele>
        <time>2024-07-01T17:18:53Z</time>
      </trkpt>
      <trkpt lat="43.92555" lon="3.32279">
        <ele>794</ele>
        <time>2024-07-01T17:19:27Z</time>
      </trkpt>
      <trkpt lat="43.92644" lon="3.32417">
        <ele>791</ele>
        <time>2024-07-01T17:19:58Z</time>
      </trkpt>
      <trkpt lat="43.9289" lon="3.32677">
        <ele>786</ele>
        <time>2024-07-01T17:21:10Z</time>
      </trkpt>
      <trkpt lat="43.93188" lon="3.32856">
        <ele>785</ele>
        <time>2024-07-01T17:22:26Z</time>
      </trkpt>
      <trkpt lat="43.93482" lon="3.32999">
        <ele>778</ele>
        <time>2024-07-01T17:23:39Z</time>
      </trkpt>
      <trkpt lat="43.9361" lon="3.33121">
        <ele>779</ele>
        <time>2024-07-01T17:24:15Z</time>
      </trkpt>
      <trkpt lat="43.93801" lon="3.33172">
        <ele>781</ele>
        <time>2024-07-01T17:25:00Z</time>
      </trkpt>
      <trkpt lat="43.94051" lon="3.33024">
        <ele>782</ele>
        <time>2024-07-01T17:26:04Z</time>
      </trkpt>
      <trkpt lat="43.94073" lon="3.32881">
        <ele>783</ele>
        <time>2024-07-01T17:26:29Z</time>
      </trkpt>
      <trkpt lat="43.94206" lon="3.32483">
        <ele>781</ele>
        <time>2024-07-01T17:27:42Z</time>
      </trkpt>
      <trkpt lat="43.94173" lon="3.32361">
        <ele>778</ele>
        <time>2024-07-01T17:28:04Z</time>
      </trkpt>
      <trkpt lat="43.94422" lon="3.32029">
        <ele>769</ele>
        <time>2024-07-01T17:29:25Z</time>
      </trkpt>
      <trkpt lat="43.94492" lon="3.31759">
        <ele>765</ele>
        <time>2024-07-01T17:30:13Z</time>
      </trkpt>
      <trkpt lat="43.94647" lon="3.3156">
        <ele>762</ele>
        <time>2024-07-01T17:31:02Z</time>
      </trkpt>
      <trkpt lat="43.94827" lon="3.31396">
        <ele>765</ele>
        <time>2024-07-01T17:31:53Z</time>
      </trkpt>
      <trkpt lat="43.94845" lon="3.31238">
        <ele>760</ele>
        <time>2024-07-01T17:32:20Z</time>
      </trkpt>
      <trkpt lat="43.94922" lon="3.31146">
        <ele>760</ele>
        <time>2024-07-01T17:32:43Z</time>
      </trkpt>
      <trkpt lat="43.94885" lon="3.31044">
        <ele>759</ele>
        <time>2024-07-01T17:33:02Z</time>
      </trkpt>
      <trkpt lat="43.94948" lon="3.30881">
        <ele>761</ele>
        <time>2024-07-01T17:33:34Z</time>
      </trkpt>
      <trkpt lat="43.94926" lon="3.30804">
        <ele>761</ele>
        <time>2024-07-01T17:33:47Z</time>
      </trkpt>
      <trkpt lat="43.9504" lon="3.3059">
        <ele>761</ele>
        <time>2024-07-01T17:34:32Z</time>
      </trkpt>
      <trkpt lat="43.95113" lon="3.30243">
        <ele>773</ele>
        <time>2024-07-01T17:35:33Z</time>
      </trkpt>
      <trkpt lat="43.95293" lon="3.29983">
        <ele>781</ele>
        <time>2024-07-01T17:36:34Z</time>
      </trkpt>
      <trkpt lat="43.95312" lon="3.30054">
        <ele>780</ele>
        <time>2024-07-01T17:36:46Z</time>
      </trkpt>
      <trkpt lat="43.95495" lon="3.29717">
        <ele>771</ele>
        <time>2024-07-01T17:37:57Z</time>
      </trkpt>
      <trkpt lat="43.95609" lon="3.29559">
        <ele>769</ele>
        <time>2024-07-01T17:38:35Z</time>
      </trkpt>
      <trkpt lat="43.95723" lon="3.29615">
        <ele>763</ele>
        <time>2024-07-01T17:39:03Z</time>
      </trkpt>
      <trkpt lat="43.95727" lon="3.29916">
        <ele>768</ele>
        <time>2024-07-01T17:39:54Z</time>
      </trkpt>
      <trkpt lat="43.96046" lon="3.30493">
        <ele>778</ele>
        <time>2024-07-01T17:41:56Z</time>
      </trkpt>
      <trkpt lat="43.96248" lon="3.31141">
        <ele>786</ele>
        <time>2024-07-01T17:43:55Z</time>
      </trkpt>
      <trkpt lat="43.96836" lon="3.31136">
        <ele>805</ele>
        <time>2024-07-01T17:46:12Z</time>
      </trkpt>
      <trkpt lat="43.97038" lon="3.31049">
        <ele>783</ele>
        <time>2024-07-01T17:47:02Z</time>
      </trkpt>
      <trkpt lat="43.97475" lon="3.30957">
        <ele>766</ele>
        <time>2024-07-01T17:48:45Z</time>
      </trkpt>
      <trkpt lat="43.97644" lon="3.30983">
        <ele>777</ele>
        <time>2024-07-01T17:49:24Z</time>
      </trkpt>
      <trkpt lat="43.9781" lon="3.30896">
        <ele>777</ele>
        <time>2024-07-01T17:50:06Z</time>
      </trkpt>
      <trkpt lat="43.98078" lon="3.30672">
        <ele>723</ele>
        <time>2024-07-01T17:51:19Z</time>
      </trkpt>
      <trkpt lat="43.98166" lon="3.30508">
        <ele>704</ele>
        <time>2024-07-01T17:51:53Z</time>
      </trkpt>
      <trkpt lat="43.98324" lon="3.30605">
        <ele>689</ele>
        <time>2024-07-01T17:52:34Z</time>
      </trkpt>
      <trkpt lat="43.98452" lon="3.30539">
        <ele>682</ele>
        <time>2024-07-01T17:53:06Z</time>
      </trkpt>
      <trkpt lat="43.98779" lon="3.30692">
        <ele>679</ele>
        <time>2024-07-01T17:54:26Z</time>
      </trkpt>
      <trkpt lat="43.99095" lon="3.30585">
        <ele>661</ele>
        <time>2024-07-01T17:55:42Z</time>
      </trkpt>
      <trkpt lat="43.99524" lon="3.30804">
        <ele>682</ele>
        <time>2024-07-01T17:57:29Z</time>
      </trkpt>
      <trkpt lat="43.99664" lon="3.30702">
        <ele>668</ele>
        <time>2024-07-01T17:58:06Z</time>
      </trkpt>
      <trkpt lat="43.9977" lon="3.30508">
        <ele>650</ele>
        <time>2024-07-01T17:58:47Z</time>
      </trkpt>
      <trkpt lat="44.00119" lon="3.30672">
        <ele>619</ele>
        <time>2024-07-01T18:00:13Z</time>
      </trkpt>
      <trkpt lat="44.00137" lon="3.3059">
        <ele>610</ele>
        <time>2024-07-01T18:00:27Z</time>
      </trkpt>
      <trkpt lat="44.00079" lon="3.30253">
        <ele>591</ele>
        <time>2024-07-01T18:01:25Z</time>
      </trkpt>
      <trkpt lat="44.00387" lon="3.30335">
        <ele>614</ele>
        <time>2024-07-01T18:02:38Z</time>
      </trkpt>
      <trkpt lat="44.00556" lon="3.30273">
        <ele>625</ele>
        <time>2024-07-01T18:03:19Z</time>
      </trkpt>
      <trkpt lat="44.00677" lon="3.30192">
        <ele>607</ele>
        <time>2024-07-01T18:03:51Z</time>
      </trkpt>
      <trkpt lat="44.00761" lon="3.30299">
        <ele>595</ele>
        <time>2024-07-01T18:04:17Z</time>
      </trkpt>
      <trkpt lat="44.00747" lon="3.30177">
        <ele>587</ele>
        <time>2024-07-01T18:04:38Z</time>
      </trkpt>
      <trkpt lat="44.00861" lon="3.30325">
        <ele>570</ele>
        <time>2024-07-01T18:05:14Z</time>
      </trkpt>
      <trkpt lat="44.01118" lon="3.30462">
        <ele>511</ele>
        <time>2024-07-01T18:06:19Z</time>
      </trkpt>
      <trkpt lat="44.01253" lon="3.30391">
        <ele>497</ele>
        <time>2024-07-01T18:06:52Z</time>
      </trkpt>
      <trkpt lat="44.01352" lon="3.30498">
        <ele>489</ele>
        <time>2024-07-01T18:07:22Z</time>
      </trkpt>
      <trkpt lat="44.01947" lon="3.30473">
        <ele>490</ele>
        <time>2024-07-01T18:09:41Z</time>
      </trkpt>
      <trkpt lat="44.02193" lon="3.30284">
        <ele>493</ele>
        <time>2024-07-01T18:10:46Z</time>
      </trkpt>
      <trkpt lat="44.02208" lon="3.29962">
        <ele>496</ele>
        <time>2024-07-01T18:11:41Z</time>
      </trkpt>
      <trkpt lat="44.02226" lon="3.29809">
        <ele>495</ele>
        <time>2024-07-01T18:12:07Z</time>
      </trkpt>
      <trkpt lat="44.0202" lon="3.29375">
        <ele>496</ele>
        <time>2024-07-01T18:13:34Z</time>
      </trkpt>
      <trkpt lat="44.02028" lon="3.29278">
        <ele>499</ele>
        <time>2024-07-01T18:13:50Z</time>
      </trkpt>
      <trkpt lat="44.01903" lon="3.29095">
        <ele>500</ele>
        <time>2024-07-01T18:14:33Z</time>
      </trkpt>
      <trkpt lat="44.0191" lon="3.28982">
        <ele>507</ele>
        <time>2024-07-01T18:14:52Z</time>
      </trkpt>
      <trkpt lat="44.01734" lon="3.28829">
        <ele>505</ele>
        <time>2024-07-01T18:15:40Z</time>
      </trkpt>
      <trkpt lat="44.01642" lon="3.28513">
        <ele>515</ele>
        <time>2024-07-01T18:16:37Z</time>
      </trkpt>
      <trkpt lat="44.01668" lon="3.28309">
        <ele>524</ele>
        <time>2024-07-01T18:17:12Z</time>
      </trkpt>
      <trkpt lat="44.01642" lon="3.28156">
        <ele>528</ele>
        <time>2024-07-01T18:17:39Z</time>
      </trkpt>
      <trkpt lat="44.01797" lon="3.27819">
        <ele>553</ele>
        <time>2024-07-01T18:18:46Z</time>
      </trkpt>
      <trkpt lat="44.01925" lon="3.2766">
        <ele>574</ele>
        <time>2024-07-01T18:19:26Z</time>
      </trkpt>
      <trkpt lat="44.02193" lon="3.27211">
        <ele>637</ele>
        <time>2024-07-01T18:21:04Z</time>
      </trkpt>
      <trkpt lat="44.02281" lon="3.26839">
        <ele>696</ele>
        <time>2024-07-01T18:22:10Z</time>
      </trkpt>
      <trkpt lat="44.0245" lon="3.26696">
        <ele>732</ele>
        <time>2024-07-01T18:22:56Z</time>
      </trkpt>
      <trkpt lat="44.02586" lon="3.2642">
        <ele>772</ele>
        <time>2024-07-01T18:23:52Z</time>
      </trkpt>
      <trkpt lat="44.02692" lon="3.26201">
        <ele>793</ele>
        <time>2024-07-01T18:24:36Z</time>
      </trkpt>
      <trkpt lat="44.02508" lon="3.26084">
        <ele>805</ele>
        <time>2024-07-01T18:25:24Z</time>
      </trkpt>
      <trkpt lat="44.02721" lon="3.26114">
        <ele>799</ele>
        <time>2024-07-01T18:26:14Z</time>
      </trkpt>
      <trkpt lat="44.02773" lon="3.26242">
        <ele>801</ele>
        <time>2024-07-01T18:26:38Z</time>
      </trkpt>
      <trkpt lat="44.02809" lon="3.26522">
        <ele>814</ele>
        <time>2024-07-01T18:27:26Z</time>
      </trkpt>
      <trkpt lat="44.02773" lon="3.26829">
        <ele>815</ele>
        <time>2024-07-01T18:28:18Z</time>
      </trkpt>
      <trkpt lat="44.03264" lon="3.27201">
        <ele>817</ele>
        <time>2024-07-01T18:30:29Z</time>
      </trkpt>
      <trkpt lat="44.03444" lon="3.27839">
        <ele>824</ele>
        <time>2024-07-01T18:32:24Z</time>
      </trkpt>
      <trkpt lat="44.03763" lon="3.28125">
        <ele>828</ele>
        <time>2024-07-01T18:33:53Z</time>
      </trkpt>
      <trkpt lat="44.03815" lon="3.28293">
        <ele>810</ele>
        <time>2024-07-01T18:34:23Z</time>
      </trkpt>
      <trkpt lat="44.04083" lon="3.28416">
        <ele>821</ele>
        <time>2024-07-01T18:35:29Z</time>
      </trkpt>
      <trkpt lat="44.04504" lon="3.28538">
        <ele>835</ele>
        <time>2024-07-01T18:37:10Z</time>
      </trkpt>
      <trkpt lat="44.04622" lon="3.28666">
        <ele>828</ele>
        <time>2024-07-01T18:37:45Z</time>
      </trkpt>
      <trkpt lat="44.04794" lon="3.28666">
        <ele>809</ele>
        <time>2024-07-01T18:38:25Z</time>
      </trkpt>
      <trkpt lat="44.05" lon="3.28406">
        <ele>837</ele>
        <time>2024-07-01T18:39:30Z</time>
      </trkpt>
      <trkpt lat="44.05066" lon="3.28212">
        <ele>825</ele>
        <time>2024-07-01T18:40:06Z</time>
      </trkpt>
      <trkpt lat="44.05084" lon="3.27839">
        <ele>798</ele>
        <time>2024-07-01T18:41:08Z</time>
      </trkpt>
      <trkpt lat="44.05157" lon="3.27722">
        <ele>808</ele>
        <time>2024-07-01T18:41:34Z</time>
      </trkpt>
      <trkpt lat="44.05308" lon="3.27645">
        <ele>797</ele>
        <time>2024-07-01T18:42:12Z</time>
      </trkpt>
      <trkpt lat="44.05333" lon="3.27523">
        <ele>797</ele>
        <time>2024-07-01T18:42:33Z</time>
      </trkpt>
      <trkpt lat="44.05616" lon="3.27191">
        <ele>796</ele>
        <time>2024-07-01T18:44:00Z</time>
      </trkpt>
      <trkpt lat="44.05898" lon="3.27079">
        <ele>783</ele>
        <time>2024-07-01T18:45:08Z</time>
      </trkpt>
      <trkpt lat="44.06283" lon="3.27104">
        <ele>770</ele>
        <time>2024-07-01T18:46:38Z</time>
      </trkpt>
      <trkpt lat="44.0647" lon="3.27191">
        <ele>743</ele>
        <time>2024-07-01T18:47:24Z</time>
      </trkpt>
      <trkpt lat="44.0669" lon="3.27068">
        <ele>739</ele>
        <time>2024-07-01T18:48:20Z</time>
      </trkpt>
      <trkpt lat="44.06767" lon="3.27222">
        <ele>708</ele>
        <time>2024-07-01T18:48:51Z</time>
      </trkpt>
      <trkpt lat="44.06991" lon="3.27303">
        <ele>691</ele>
        <time>2024-07-01T18:49:45Z</time>
      </trkpt>
      <trkpt lat="44.06984" lon="3.27145">
        <ele>698</ele>
        <time>2024-07-01T18:50:12Z</time>
      </trkpt>
      <trkpt lat="44.07178" lon="3.2716">
        <ele>660</ele>
        <time>2024-07-01T18:50:57Z</time>
      </trkpt>
      <trkpt lat="44.07207" lon="3.2692">
        <ele>680</ele>
        <time>2024-07-01T18:51:38Z</time>
      </trkpt>
      <trkpt lat="44.07545" lon="3.27268">
        <ele>683</ele>
        <time>2024-07-01T18:53:16Z</time>
      </trkpt>
      <trkpt lat="44.07695" lon="3.26798">
        <ele>725</ele>
        <time>2024-07-01T18:54:42Z</time>
      </trkpt>
      <trkpt lat="44.07838" lon="3.26589">
        <ele>725</ele>
        <time>2024-07-01T18:55:31Z</time>
      </trkpt>
      <trkpt lat="44.08051" lon="3.26512">
        <ele>722</ele>
        <time>2024-07-01T18:56:22Z</time>
      </trkpt>
      <trkpt lat="44.07937" lon="3.26339">
        <ele>721</ele>
        <time>2024-07-01T18:57:02Z</time>
      </trkpt>
      <trkpt lat="44.08047" lon="3.26191">
        <ele>714</ele>
        <time>2024-07-01T18:57:37Z</time>
      </trkpt>
      <trkpt lat="44.08032" lon="3.25752">
        <ele>708</ele>
        <time>2024-07-01T18:58:51Z</time>
      </trkpt>
      <trkpt lat="44.07977" lon="3.25696">
        <ele>709</ele>
        <time>2024-07-01T18:59:07Z</time>
      </trkpt>
      <trkpt lat="44.08065" lon="3.25481">
        <ele>697</ele>
        <time>2024-07-01T18:59:49Z</time>
      </trkpt>
      <trkpt lat="44.08274" lon="3.25395">
        <ele>710</ele>
        <time>2024-07-01T19:00:39Z</time>
      </trkpt>
      <trkpt lat="44.08333" lon="3.25292">
        <ele>726</ele>
        <time>2024-07-01T19:01:02Z</time>
      </trkpt>
      <trkpt lat="44.08736" lon="3.25027">
        <ele>758</ele>
        <time>2024-07-01T19:02:46Z</time>
      </trkpt>
      <trkpt lat="44.08846" lon="3.24787">
        <ele>749</ele>
        <time>2024-07-01T19:03:33Z</time>
      </trkpt>
      <trkpt lat="44.09059" lon="3.24685">
        <ele>740</ele>
        <time>2024-07-01T19:04:26Z</time>
      </trkpt>
      <trkpt lat="44.09026" lon="3.24542">
        <ele>735</ele>
        <time>2024-07-01T19:04:51Z</time>
      </trkpt>
      <trkpt lat="44.0907" lon="3.2445">
        <ele>735</ele>
        <time>2024-07-01T19:05:10Z</time>
      </trkpt>
      <trkpt lat="44.08985" lon="3.24292">
        <ele>736</ele>
        <time>2024-07-01T19:05:43Z</time>
      </trkpt>
      <trkpt lat="44.08824" lon="3.23909">
        <ele>736</ele>
        <time>2024-07-01T19:06:57Z</time>
      </trkpt>
      <trkpt lat="44.08971" lon="3.23501">
        <ele>723</ele>
        <time>2024-07-01T19:08:14Z</time>
      </trkpt>
      <trkpt lat="44.0889" lon="3.23154">
        <ele>716</ele>
        <time>2024-07-01T19:09:15Z</time>
      </trkpt>
      <trkpt lat="44.08707" lon="3.2272">
        <ele>710</ele>
        <time>2024-07-01T19:10:39Z</time>
      </trkpt>
      <trkpt lat="44.08795" lon="3.2247">
        <ele>711</ele>
        <time>2024-07-01T19:11:26Z</time>
      </trkpt>
      <trkpt lat="44.08498" lon="3.22465">
        <ele>719</ele>
        <time>2024-07-01T19:12:35Z</time>
      </trkpt>
      <trkpt lat="44.08406" lon="3.2198">
        <ele>760</ele>
        <time>2024-07-01T19:14:00Z</time>
      </trkpt>
      <trkpt lat="44.0826" lon="3.21766">
        <ele>766</ele>
        <time>2024-07-01T19:14:49Z</time>
      </trkpt>
      <trkpt lat="44.0826" lon="3.21608">
        <ele>777</ele>
        <time>2024-07-01T19:15:16Z</time>
      </trkpt>
      <trkpt lat="44.08197" lon="3.21485">
        <ele>791</ele>
        <time>2024-07-01T19:15:41Z</time>
      </trkpt>
      <trkpt lat="44.08018" lon="3.21128">
        <ele>804</ele>
        <time>2024-07-01T19:16:54Z</time>
      </trkpt>
      <trkpt lat="44.07596" lon="3.21011">
        <ele>816</ele>
        <time>2024-07-01T19:18:34Z</time>
      </trkpt>
      <trkpt lat="44.07189" lon="3.21057">
        <ele>795</ele>
        <time>2024-07-01T19:20:10Z</time>
      </trkpt>
      <trkpt lat="44.07079" lon="3.21011">
        <ele>785</ele>
        <time>2024-07-01T19:20:37Z</time>
      </trkpt>
      <trkpt lat="44.0705" lon="3.20832">
        <ele>788</ele>
        <time>2024-07-01T19:21:07Z</time>
      </trkpt>
      <trkpt lat="44.06962" lon="3.20791">
        <ele>789</ele>
        <time>2024-07-01T19:21:29Z</time>
      </trkpt>
      <trkpt lat="44.06852" lon="3.20602">
        <ele>789</ele>
        <time>2024-07-01T19:22:10Z</time>
      </trkpt>
      <trkpt lat="44.06947" lon="3.1998">
        <ele>794</ele>
        <time>2024-07-01T19:23:57Z</time>
      </trkpt>
      <trkpt lat="44.07086" lon="3.19551">
        <ele>797</ele>
        <time>2024-07-01T19:25:16Z</time>
      </trkpt>
      <trkpt lat="44.07064" lon="3.19337">
        <ele>796</ele>
        <time>2024-07-01T19:25:52Z</time>
      </trkpt>
      <trkpt lat="44.07009" lon="3.19245">
        <ele>796</ele>
        <time>2024-07-01T19:26:12Z</time>
      </trkpt>
      <trkpt lat="44.07006" lon="3.19092">
        <ele>800</ele>
        <time>2024-07-01T19:26:38Z</time>
      </trkpt>
      <trkpt lat="44.07189" lon="3.19102">
        <ele>798</ele>
        <time>2024-07-01T19:27:20Z</time>
      </trkpt>
      <trkpt lat="44.07237" lon="3.18898">
        <ele>796</ele>
        <time>2024-07-01T19:27:56Z</time>
      </trkpt>
      <trkpt lat="44.07468" lon="3.18724">
        <ele>789</ele>
        <time>2024-07-01T19:28:58Z</time>
      </trkpt>
      <trkpt lat="44.07592" lon="3.18423">
        <ele>778</ele>
        <time>2024-07-01T19:29:56Z</time>
      </trkpt>
      <trkpt lat="44.0771" lon="3.18306">
        <ele>781</ele>
        <time>2024-07-01T19:30:30Z</time>
      </trkpt>
      <trkpt lat="44.07739" lon="3.18122">
        <ele>771</ele>
        <time>2024-07-01T19:31:01Z</time>
      </trkpt>
      <trkpt lat="44.07468" lon="3.17744">
        <ele>787</ele>
        <time>2024-07-01T19:32:31Z</time>
      </trkpt>
      <trkpt lat="44.07321" lon="3.17494">
        <ele>788</ele>
        <time>2024-07-01T19:33:25Z</time>
      </trkpt>
      <trkpt lat="44.07215" lon="3.17316">
        <ele>789</ele>
        <time>2024-07-01T19:34:04Z</time>
      </trkpt>
      <trkpt lat="44.07317" lon="3.17112">
        <ele>791</ele>
        <time>2024-07-01T19:34:46Z</time>
      </trkpt>
      <trkpt lat="44.07306" lon="3.16928">
        <ele>789</ele>
        <time>2024-07-01T19:35:17Z</time>
      </trkpt>
      <trkpt lat="44.07394" lon="3.16708">
        <ele>787</ele>
        <time>2024-07-01T19:35:59Z</time>
      </trkpt>
      <trkpt lat="44.07332" lon="3.15662">
        <ele>790</ele>
        <time>2024-07-01T19:38:55Z</time>
      </trkpt>
      <trkpt lat="44.07427" lon="3.15529">
        <ele>785</ele>
        <time>2024-07-01T19:39:26Z</time>
      </trkpt>
      <trkpt lat="44.07493" lon="3.15203">
        <ele>784</ele>
        <time>2024-07-01T19:40:23Z</time>
      </trkpt>
      <trkpt lat="44.07391" lon="3.15106">
        <ele>784</ele>
        <time>2024-07-01T19:40:52Z</time>
      </trkpt>
      <trkpt lat="44.07398" lon="3.15004">
        <ele>786</ele>
        <time>2024-07-01T19:41:09Z</time>
      </trkpt>
      <trkpt lat="44.07079" lon="3.15106">
        <ele>785</ele>
        <time>2024-07-01T19:42:26Z</time>
      </trkpt>
      <trkpt lat="44.0698" lon="3.1505">
        <ele>781</ele>
        <time>2024-07-01T19:42:51Z</time>
      </trkpt>
      <trkpt lat="44.06888" lon="3.15075">
        <ele>777</ele>
        <time>2024-07-01T19:43:13Z</time>
      </trkpt>
      <trkpt lat="44.06914" lon="3.14636">
        <ele>779</ele>
        <time>2024-07-01T19:44:27Z</time>
      </trkpt>
      <trkpt lat="44.07028" lon="3.14402">
        <ele>772</ele>
        <time>2024-07-01T19:45:14Z</time>
      </trkpt>
      <trkpt lat="44.0738" lon="3.13804">
        <ele>749</ele>
        <time>2024-07-01T19:47:24Z</time>
      </trkpt>
      <trkpt lat="44.07361" lon="3.13672">
        <ele>748</ele>
        <time>2024-07-01T19:47:46Z</time>
      </trkpt>
      <trkpt lat="44.07468" lon="3.13524">
        <ele>750</ele>
        <time>2024-07-01T19:48:22Z</time>
      </trkpt>
      <trkpt lat="44.07636" lon="3.12998">
        <ele>754</ele>
        <time>2024-07-01T19:49:58Z</time>
      </trkpt>
      <trkpt lat="44.07622" lon="3.12896">
        <ele>755</ele>
        <time>2024-07-01T19:50:16Z</time>
      </trkpt>
      <trkpt lat="44.07724" lon="3.12753">
        <ele>748</ele>
        <time>2024-07-01T19:50:49Z</time>
      </trkpt>
      <trkpt lat="44.07647" lon="3.1258">
        <ele>748</ele>
        <time>2024-07-01T19:51:23Z</time>
      </trkpt>
      <trkpt lat="44.07746" lon="3.12411">
        <ele>746</ele>
        <time>2024-07-01T19:52:00Z</time>
      </trkpt>
      <trkpt lat="44.08073" lon="3.12284">
        <ele>743</ele>
        <time>2024-07-01T19:53:19Z</time>
      </trkpt>
      <trkpt lat="44.08161" lon="3.1237">
        <ele>735</ele>
        <time>2024-07-01T19:53:44Z</time>
      </trkpt>
      <trkpt lat="44.08351" lon="3.12319">
        <ele>742</ele>
        <time>2024-07-01T19:54:30Z</time>
      </trkpt>
      <trkpt lat="44.08549" lon="3.12539">
        <ele>738</ele>
        <time>2024-07-01T19:55:29Z</time>
      </trkpt>
      <trkpt lat="44.08791" lon="3.12447">
        <ele>752</ele>
        <time>2024-07-01T19:56:27Z</time>
      </trkpt>
      <trkpt lat="44.08927" lon="3.12284">
        <ele>763</ele>
        <time>2024-07-01T19:57:09Z</time>
      </trkpt>
      <trkpt lat="44.08934" lon="3.12146">
        <ele>771</ele>
        <time>2024-07-01T19:57:32Z</time>
      </trkpt>
      <trkpt lat="44.09099" lon="3.12355">
        <ele>744</ele>
        <time>2024-07-01T19:58:25Z</time>
      </trkpt>
      <trkpt lat="44.09213" lon="3.12217">
        <ele>765</ele>
        <time>2024-07-01T19:59:00Z</time>
      </trkpt>
      <trkpt lat="44.09246" lon="3.121">
        <ele>775</ele>
        <time>2024-07-01T19:59:21Z</time>
      </trkpt>
      <trkpt lat="44.09176" lon="3.12008">
        <ele>796</ele>
        <time>2024-07-01T19:59:43Z</time>
      </trkpt>
      <trkpt lat="44.09092" lon="3.11916">
        <ele>795</ele>
        <time>2024-07-01T20:00:08Z</time>
      </trkpt>
      <trkpt lat="44.08952" lon="3.11855">
        <ele>785</ele>
        <time>2024-07-01T20:00:43Z</time>
      </trkpt>
      <trkpt lat="44.08824" lon="3.11651">
        <ele>784</ele>
        <time>2024-07-01T20:01:28Z</time>
      </trkpt>
      <trkpt lat="44.08784" lon="3.1138">
        <ele>779</ele>
        <time>2024-07-01T20:02:14Z</time>
      </trkpt>
      <trkpt lat="44.08813" lon="3.1114">
        <ele>786</ele>
        <time>2024-07-01T20:02:55Z</time>
      </trkpt>
      <trkpt lat="44.08711" lon="3.11059">
        <ele>785</ele>
        <time>2024-07-01T20:03:23Z</time>
      </trkpt>
      <trkpt lat="44.08285" lon="3.1064">
        <ele>759</ele>
        <time>2024-07-01T20:05:25Z</time>
      </trkpt>
      <trkpt lat="44.08194" lon="3.10436">
        <ele>758</ele>
        <time>2024-07-01T20:06:05Z</time>
      </trkpt>
      <trkpt lat="44.08095" lon="3.09768">
        <ele>747</ele>
        <time>2024-07-01T20:07:59Z</time>
      </trkpt>
      <trkpt lat="44.08135" lon="3.09436">
        <ele>734</ele>
        <time>2024-07-01T20:08:56Z</time>
      </trkpt>
      <trkpt lat="44.08128" lon="3.09262">
        <ele>714</ele>
        <time>2024-07-01T20:09:25Z</time>
      </trkpt>
      <trkpt lat="44.07955" lon="3.09354">
        <ele>735</ele>
        <time>2024-07-01T20:10:08Z</time>
      </trkpt>
      <trkpt lat="44.07842" lon="3.09191">
        <ele>737</ele>
        <time>2024-07-01T20:10:46Z</time>
      </trkpt>
      <trkpt lat="44.08003" lon="3.08854">
        <ele>755</ele>
        <time>2024-07-01T20:11:54Z</time>
      </trkpt>
      <trkpt lat="44.08058" lon="3.08609">
        <ele>778</ele>
        <time>2024-07-01T20:12:37Z</time>
      </trkpt>
      <trkpt lat="44.08062" lon="3.08461">
        <ele>788</ele>
        <time>2024-07-01T20:13:02Z</time>
      </trkpt>
      <trkpt lat="44.08161" lon="3.08196">
        <ele>794</ele>
        <time>2024-07-01T20:13:52Z</time>
      </trkpt>
      <trkpt lat="44.08212" lon="3.07895">
        <ele>768</ele>
        <time>2024-07-01T20:14:44Z</time>
      </trkpt>
      <trkpt lat="44.08073" lon="3.07522">
        <ele>747</ele>
        <time>2024-07-01T20:15:54Z</time>
      </trkpt>
      <trkpt lat="44.079" lon="3.07119">
        <ele>729</ele>
        <time>2024-07-01T20:17:13Z</time>
      </trkpt>
      <trkpt lat="44.07871" lon="3.06807">
        <ele>714</ele>
        <time>2024-07-01T20:18:06Z</time>
      </trkpt>
      <trkpt lat="44.07757" lon="3.06751">
        <ele>714</ele>
        <time>2024-07-01T20:18:34Z</time>
      </trkpt>
      <trkpt lat="44.07647" lon="3.06828">
        <ele>713</ele>
        <time>2024-07-01T20:19:03Z</time>
      </trkpt>
      <trkpt lat="44.07526" lon="3.06787">
        <ele>693</ele>
        <time>2024-07-01T20:19:32Z</time>
      </trkpt>
      <trkpt lat="44.07457" lon="3.0695">
        <ele>711</ele>
        <time>2024-07-01T20:20:04Z</time>
      </trkpt>
      <trkpt lat="44.07317" lon="3.06711">
        <ele>709</ele>
        <time>2024-07-01T20:20:56Z</time>
      </trkpt>
      <trkpt lat="44.07306" lon="3.06522">
        <ele>717</ele>
        <time>2024-07-01T20:21:27Z</time>
      </trkpt>
      <trkpt lat="44.07072" lon="3.0621">
        <ele>731</ele>
        <time>2024-07-01T20:22:43Z</time>
      </trkpt>
      <trkpt lat="44.07002" lon="3.05828">
        <ele>723</ele>
        <time>2024-07-01T20:23:49Z</time>
      </trkpt>
      <trkpt lat="44.06599" lon="3.05787">
        <ele>709</ele>
        <time>2024-07-01T20:25:24Z</time>
      </trkpt>
      <trkpt lat="44.06584" lon="3.05695">
        <ele>694</ele>
        <time>2024-07-01T20:25:39Z</time>
      </trkpt>
      <trkpt lat="44.06371" lon="3.05455">
        <ele>699</ele>
        <time>2024-07-01T20:26:43Z</time>
      </trkpt>
      <trkpt lat="44.06228" lon="3.05327">
        <ele>727</ele>
        <time>2024-07-01T20:27:23Z</time>
      </trkpt>
      <trkpt lat="44.06188" lon="3.05047">
        <ele>739</ele>
        <time>2024-07-01T20:28:11Z</time>
      </trkpt>
      <trkpt lat="44.06115" lon="3.04991">
        <ele>768</ele>
        <time>2024-07-01T20:28:30Z</time>
      </trkpt>
      <trkpt lat="44.06148" lon="3.04776">
        <ele>772</ele>
        <time>2024-07-01T20:29:07Z</time>
      </trkpt>
      <trkpt lat="44.06228" lon="3.04659">
        <ele>751</ele>
        <time>2024-07-01T20:29:34Z</time>
      </trkpt>
      <trkpt lat="44.06305" lon="3.04394">
        <ele>737</ele>
        <time>2024-07-01T20:30:22Z</time>
      </trkpt>
      <trkpt lat="44.06558" lon="3.04271">
        <ele>659</ele>
        <time>2024-07-01T20:31:25Z</time>
      </trkpt>
      <trkpt lat="44.06294" lon="3.0396">
        <ele>682</ele>
        <time>2024-07-01T20:32:46Z</time>
      </trkpt>
      <trkpt lat="44.06349" lon="3.03847">
        <ele>666</ele>
        <time>2024-07-01T20:33:09Z</time>
      </trkpt>
      <trkpt lat="44.0632" lon="3.03516">
        <ele>687</ele>
        <time>2024-07-01T20:34:05Z</time>
      </trkpt>
      <trkpt lat="44.06225" lon="3.0346">
        <ele>699</ele>
        <time>2024-07-01T20:34:29Z</time>
      </trkpt>
      <trkpt lat="44.06133" lon="3.03511">
        <ele>716</ele>
        <time>2024-07-01T20:34:52Z</time>
      </trkpt>
      <trkpt lat="44.06085" lon="3.03439">
        <ele>719</ele>
        <time>2024-07-01T20:35:08Z</time>
      </trkpt>
      <trkpt lat="44.05733" lon="3.03602">
        <ele>720</ele>
        <time>2024-07-01T20:36:35Z</time>
      </trkpt>
      <trkpt lat="44.0563" lon="3.03597">
        <ele>714</ele>
        <time>2024-07-01T20:36:59Z</time>
      </trkpt>
      <trkpt lat="44.05583" lon="3.03847">
        <ele>720</ele>
        <time>2024-07-01T20:37:42Z</time>
      </trkpt>
      <trkpt lat="44.05385" lon="3.04327">
        <ele>735</ele>
        <time>2024-07-01T20:39:15Z</time>
      </trkpt>
      <trkpt lat="44.0519" lon="3.04608">
        <ele>736</ele>
        <time>2024-07-01T20:40:21Z</time>
      </trkpt>
      <trkpt lat="44.05113" lon="3.0469">
        <ele>730</ele>
        <time>2024-07-01T20:40:44Z</time>
      </trkpt>
      <trkpt lat="44.04952" lon="3.04735">
        <ele>738</ele>
        <time>2024-07-01T20:41:22Z</time>
      </trkpt>
      <trkpt lat="44.04897" lon="3.04593">
        <ele>729</ele>
        <time>2024-07-01T20:41:49Z</time>
      </trkpt>
      <trkpt lat="44.04769" lon="3.04077">
        <ele>703</ele>
        <time>2024-07-01T20:43:21Z</time>
      </trkpt>
      <trkpt lat="44.04578" lon="3.03975">
        <ele>698</ele>
        <time>2024-07-01T20:44:08Z</time>
      </trkpt>
      <trkpt lat="44.04457" lon="3.04006">
        <ele>698</ele>
        <time>2024-07-01T20:44:37Z</time>
      </trkpt>
      <trkpt lat="44.04163" lon="3.04118">
        <ele>724</ele>
        <time>2024-07-01T20:45:48Z</time>
      </trkpt>
      <trkpt lat="44.03822" lon="3.04052">
        <ele>714</ele>
        <time>2024-07-01T20:47:09Z</time>
      </trkpt>
      <trkpt lat="44.03371" lon="3.04261">
        <ele>731</ele>
        <time>2024-07-01T20:49:00Z</time>
      </trkpt>
      <trkpt lat="44.03283" lon="3.04531">
        <ele>737</ele>
        <time>2024-07-01T20:49:49Z</time>
      </trkpt>
      <trkpt lat="44.03426" lon="3.04735">
        <ele>724</ele>
        <time>2024-07-01T20:50:37Z</time>
      </trkpt>
      <trkpt lat="44.03595" lon="3.04919">
        <ele>724</ele>
        <time>2024-07-01T20:51:27Z</time>
      </trkpt>
      <trkpt lat="44.03793" lon="3.0497">
        <ele>734</ele>
        <time>2024-07-01T20:52:14Z</time>
      </trkpt>
      <trkpt lat="44.04134" lon="3.05179">
        <ele>747</ele>
        <time>2024-07-01T20:53:41Z</time>
      </trkpt>
      <trkpt lat="44.04361" lon="3.05297">
        <ele>738</ele>
        <time>2024-07-01T20:54:38Z</time>
      </trkpt>
      <trkpt lat="44.04321" lon="3.05511">
        <ele>747</ele>
        <time>2024-07-01T20:55:15Z</time>
      </trkpt>
      <trkpt lat="44.04358" lon="3.0568">
        <ele>749</ele>
        <time>2024-07-01T20:55:45Z</time>
      </trkpt>
      <trkpt lat="44.0435" lon="3.05991">
        <ele>755</ele>
        <time>2024-07-01T20:56:37Z</time>
      </trkpt>
      <trkpt lat="44.04266" lon="3.06139">
        <ele>755</ele>
        <time>2024-07-01T20:57:09Z</time>
      </trkpt>
      <trkpt lat="44.03862" lon="3.06251">
        <ele>767</ele>
        <time>2024-07-01T20:58:45Z</time>
      </trkpt>
      <trkpt lat="44.03939" lon="3.06619">
        <ele>767</ele>
        <time>2024-07-01T20:59:49Z</time>
      </trkpt>
      <trkpt lat="44.03851" lon="3.06823">
        <ele>770</ele>
        <time>2024-07-01T21:00:29Z</time>
      </trkpt>
      <trkpt lat="44.0387" lon="3.07297">
        <ele>761</ele>
        <time>2024-07-01T21:01:49Z</time>
      </trkpt>
      <trkpt lat="44.03987" lon="3.07583">
        <ele>748</ele>
        <time>2024-07-01T21:02:44Z</time>
      </trkpt>
      <trkpt lat="44.04453" lon="3.08094">
        <ele>760</ele>
        <time>2024-07-01T21:05:03Z</time>
      </trkpt>
      <trkpt lat="44.04578" lon="3.09094">
        <ele>790</ele>
        <time>2024-07-01T21:07:53Z</time>
      </trkpt>
      <trkpt lat="44.04651" lon="3.09221">
        <ele>788</ele>
        <time>2024-07-01T21:08:20Z</time>
      </trkpt>
      <trkpt lat="44.04787" lon="3.09793">
        <ele>784</ele>
        <time>2024-07-01T21:10:02Z</time>
      </trkpt>
      <trkpt lat="44.04915" lon="3.10007">
        <ele>775</ele>
        <time>2024-07-01T21:10:48Z</time>
      </trkpt>
      <trkpt lat="44.05003" lon="3.10196">
        <ele>774</ele>
        <time>2024-07-01T21:11:26Z</time>
      </trkpt>
      <trkpt lat="44.05157" lon="3.10283">
        <ele>784</ele>
        <time>2024-07-01T21:12:05Z</time>
      </trkpt>
      <trkpt lat="44.05267" lon="3.10502">
        <ele>797</ele>
        <time>2024-07-01T21:12:50Z</time>
      </trkpt>
      <trkpt lat="44.05311" lon="3.10768">
        <ele>804</ele>
        <time>2024-07-01T21:13:36Z</time>
      </trkpt>
      <trkpt lat="44.05256" lon="3.10972">
        <ele>820</ele>
        <time>2024-07-01T21:14:12Z</time>
      </trkpt>
      <trkpt lat="44.04948" lon="3.11273">
        <ele>829</ele>
        <time>2024-07-01T21:15:40Z</time>
      </trkpt>
      <trkpt lat="44.04802" lon="3.11748">
        <ele>808</ele>
        <time>2024-07-01T21:17:07Z</time>
      </trkpt>
      <trkpt lat="44.04794" lon="3.12146">
        <ele>805</ele>
        <time>2024-07-01T21:18:14Z</time>
      </trkpt>
      <trkpt lat="44.04479" lon="3.12508">
        <ele>787</ele>
        <time>2024-07-01T21:19:49Z</time>
      </trkpt>
      <trkpt lat="44.04394" lon="3.12529">
        <ele>787</ele>
        <time>2024-07-01T21:20:09Z</time>
      </trkpt>
      <trkpt lat="44.042" lon="3.12753">
        <ele>787</ele>
        <time>2024-07-01T21:21:08Z</time>
      </trkpt>
      <trkpt lat="44.04215" lon="3.13044">
        <ele>791</ele>
        <time>2024-07-01T21:21:57Z</time>
      </trkpt>
      <trkpt lat="44.03866" lon="3.12738">
        <ele>792</ele>
        <time>2024-07-01T21:23:33Z</time>
      </trkpt>
      <trkpt lat="44.03415" lon="3.12927">
        <ele>800</ele>
        <time>2024-07-01T21:25:23Z</time>
      </trkpt>
      <trkpt lat="44.03426" lon="3.1308">
        <ele>801</ele>
        <time>2024-07-01T21:25:49Z</time>
      </trkpt>
      <trkpt lat="44.03041" lon="3.13274">
        <ele>810</ele>
        <time>2024-07-01T21:27:25Z</time>
      </trkpt>
      <trkpt lat="44.03187" lon="3.13886">
        <ele>787</ele>
        <time>2024-07-01T21:29:13Z</time>
      </trkpt>
      <trkpt lat="44.03088" lon="3.14024">
        <ele>785</ele>
        <time>2024-07-01T21:29:46Z</time>
      </trkpt>
      <trkpt lat="44.03048" lon="3.14233">
        <ele>796</ele>
        <time>2024-07-01T21:30:22Z</time>
      </trkpt>
      <trkpt lat="44.02938" lon="3.14325">
        <ele>802</ele>
        <time>2024-07-01T21:30:52Z</time>
      </trkpt>
      <trkpt lat="44.02886" lon="3.14463">
        <ele>798</ele>
        <time>2024-07-01T21:31:18Z</time>
      </trkpt>
      <trkpt lat="44.02637" lon="3.14514">
        <ele>790</ele>
        <time>2024-07-01T21:32:17Z</time>
      </trkpt>
      <trkpt lat="44.02391" lon="3.14412">
        <ele>791</ele>
        <time>2024-07-01T21:33:17Z</time>
      </trkpt>
      <trkpt lat="44.02285" lon="3.14254">
        <ele>794</ele>
        <time>2024-07-01T21:33:53Z</time>
      </trkpt>
      <trkpt lat="44.02123" lon="3.14478">
        <ele>781</ele>
        <time>2024-07-01T21:34:47Z</time>
      </trkpt>
      <trkpt lat="44.01925" lon="3.14692">
        <ele>779</ele>
        <time>2024-07-01T21:35:45Z</time>
      </trkpt>
      <trkpt lat="44.01741" lon="3.15096">
        <ele>785</ele>
        <time>2024-07-01T21:37:05Z</time>
      </trkpt>
      <trkpt lat="44.0176" lon="3.15662">
        <ele>779</ele>
        <time>2024-07-01T21:38:41Z</time>
      </trkpt>
      <trkpt lat="44.01664" lon="3.15734">
        <ele>779</ele>
        <time>2024-07-01T21:39:06Z</time>
      </trkpt>
      <trkpt lat="44.01367" lon="3.15647">
        <ele>794</ele>
        <time>2024-07-01T21:40:17Z</time>
      </trkpt>
      <trkpt lat="44.01283" lon="3.15407">
        <ele>788</ele>
        <time>2024-07-01T21:41:02Z</time>
      </trkpt>
      <trkpt lat="44.01191" lon="3.15718">
        <ele>793</ele>
        <time>2024-07-01T21:41:58Z</time>
      </trkpt>
      <trkpt lat="44.01062" lon="3.15871">
        <ele>794</ele>
        <time>2024-07-01T21:42:38Z</time>
        <extensions>
          <visugpx:TrkExtension xmlns:visugpx="https://www.visugpx.com/editgpx/">
            <visugpx:node>1</visugpx:node>
            </visugpx:TrkExtension>
        </extensions>
      </trkpt>
    </trkseg>
  </trk>
</gpx>